createdAt,value
2017-10-09T00:02:16.750Z,6.70
2017-10-09T00:04:45.332Z,6.70
2017-10-09T00:07:12.908Z,6.70
2017-10-09T00:09:40.566Z,6.70
2017-10-09T00:12:08.179Z,6.70
2017-10-09T00:14:35.743Z,6.70
2017-10-09T00:17:03.319Z,6.60
2017-10-09T00:19:31.695Z,6.60
2017-10-09T00:22:00.030Z,6.60
2017-10-09T00:24:27.589Z,6.60
2017-10-09T00:26:55.211Z,6.60
2017-10-09T00:29:22.777Z,6.60
2017-10-09T00:31:50.851Z,6.50
2017-10-09T00:34:19.317Z,6.50
2017-10-09T00:36:47.650Z,6.50
2017-10-09T00:39:15.218Z,6.50
2017-10-09T00:41:43.786Z,6.50
2017-10-09T00:44:12.115Z,6.50
2017-10-09T00:46:39.678Z,6.50
2017-10-09T00:49:07.290Z,6.50
2017-10-09T00:51:34.859Z,6.50
2017-10-09T00:54:02.418Z,6.50
2017-10-09T00:56:30.794Z,6.50
2017-10-09T00:58:58.364Z,6.50
2017-10-09T01:01:25.936Z,6.50
2017-10-09T01:03:53.739Z,6.50
2017-10-09T01:06:21.299Z,6.50
2017-10-09T01:08:48.859Z,6.50
2017-10-09T01:11:16.479Z,6.50
2017-10-09T01:13:44.043Z,6.50
2017-10-09T01:16:11.619Z,6.40
2017-10-09T01:18:39.383Z,6.40
2017-10-09T01:21:07.711Z,6.30
2017-10-09T01:23:35.276Z,6.30
2017-10-09T01:26:02.900Z,6.30
2017-10-09T01:28:30.477Z,6.30
2017-10-09T01:30:58.804Z,6.30
2017-10-09T01:33:26.555Z,6.20
2017-10-09T01:35:54.117Z,6.30
2017-10-09T01:38:21.682Z,6.30
2017-10-09T01:40:50.070Z,6.30
2017-10-09T01:43:17.644Z,6.20
2017-10-09T01:45:45.210Z,6.30
2017-10-09T01:48:13.594Z,6.20
2017-10-09T01:50:41.929Z,6.20
2017-10-09T01:53:10.130Z,6.20
2017-10-09T01:55:37.742Z,6.30
2017-10-09T01:58:05.305Z,6.30
2017-10-09T02:00:32.870Z,6.20
2017-10-09T02:03:00.479Z,6.20
2017-10-09T02:05:28.818Z,6.20
2017-10-09T02:07:56.384Z,6.20
2017-10-09T02:10:25.471Z,6.20
2017-10-09T02:12:53.808Z,6.20
2017-10-09T02:15:21.367Z,6.20
2017-10-09T02:17:49.948Z,6.20
2017-10-09T02:20:18.289Z,6.30
2017-10-09T02:22:45.852Z,6.20
2017-10-09T02:25:14.406Z,6.20
2017-10-09T02:27:42.733Z,6.20
2017-10-09T02:30:10.295Z,6.20
2017-10-09T02:32:38.068Z,6.20
2017-10-09T02:35:06.395Z,6.20
2017-10-09T02:37:33.953Z,6.70
2017-10-09T02:40:01.567Z,6.20
2017-10-09T02:42:29.162Z,6.20
2017-10-09T02:44:57.494Z,6.20
2017-10-09T02:47:25.110Z,6.10
2017-10-09T02:49:52.674Z,6.10
2017-10-09T02:52:20.242Z,6.20
2017-10-09T02:54:47.894Z,6.10
2017-10-09T02:57:16.230Z,6.10
2017-10-09T02:59:43.792Z,6.10
2017-10-09T03:02:11.506Z,6.10
2017-10-09T03:04:39.077Z,6.10
2017-10-09T03:07:06.635Z,6.20
2017-10-09T03:09:35.163Z,6.10
2017-10-09T03:12:02.735Z,6.10
2017-10-09T03:14:30.306Z,6.10
2017-10-09T03:16:57.914Z,6.10
2017-10-09T03:19:25.484Z,6.10
2017-10-09T03:21:53.807Z,6.10
2017-10-09T03:24:22.312Z,6.10
2017-10-09T03:26:56.357Z,6.10
2017-10-09T03:29:41.643Z,6.10
2017-10-09T03:32:09.211Z,6.10
2017-10-09T03:34:36.774Z,6.10
2017-10-09T03:37:04.379Z,6.10
2017-10-09T03:39:32.707Z,6.00
2017-10-09T03:42:03.699Z,6.00
2017-10-09T03:44:33.816Z,6.10
2017-10-09T03:47:02.311Z,6.10
2017-10-09T03:49:29.904Z,6.10
2017-10-09T03:51:57.528Z,6.10
2017-10-09T03:54:25.867Z,6.20
2017-10-09T03:56:53.433Z,6.20
2017-10-09T03:59:21.821Z,6.20
2017-10-09T04:01:49.392Z,6.20
2017-10-09T04:04:16.960Z,6.20
2017-10-09T04:06:44.662Z,6.20
2017-10-09T04:09:12.220Z,6.20
2017-10-09T04:11:39.795Z,6.20
2017-10-09T04:14:07.503Z,6.20
2017-10-09T04:16:35.068Z,6.20
2017-10-09T04:19:02.632Z,6.20
2017-10-09T04:21:30.259Z,6.20
2017-10-09T04:23:57.820Z,6.20
2017-10-09T04:26:25.445Z,6.20
2017-10-09T04:28:53.245Z,6.20
2017-10-09T04:31:21.581Z,6.20
2017-10-09T04:33:49.151Z,6.20
2017-10-09T04:36:17.538Z,6.20
2017-10-09T04:38:45.087Z,6.20
2017-10-09T04:41:12.655Z,6.20
2017-10-09T04:43:40.502Z,6.20
2017-10-09T04:46:08.072Z,6.20
2017-10-09T04:48:35.645Z,6.20
2017-10-09T04:51:03.271Z,6.20
2017-10-09T04:53:31.651Z,6.30
2017-10-09T04:55:59.226Z,6.30
2017-10-09T04:58:26.835Z,6.40
2017-10-09T05:00:55.177Z,6.40
2017-10-09T05:03:22.743Z,6.40
2017-10-09T05:05:50.436Z,6.50
2017-10-09T05:08:18.009Z,6.60
2017-10-09T05:10:45.836Z,6.60
2017-10-09T05:13:13.459Z,6.70
2017-10-09T05:15:41.381Z,6.80
2017-10-09T05:18:08.955Z,6.90
2017-10-09T05:20:36.572Z,6.90
2017-10-09T05:23:04.144Z,6.80
2017-10-09T05:25:31.711Z,6.80
2017-10-09T05:27:59.332Z,6.80
2017-10-09T05:30:28.414Z,6.80
2017-10-09T05:32:55.970Z,6.80
2017-10-09T05:35:23.598Z,6.90
2017-10-09T05:37:51.158Z,7.00
2017-10-09T05:40:18.803Z,7.10
2017-10-09T05:42:46.438Z,7.10
2017-10-09T05:45:14.013Z,7.20
2017-10-09T05:47:41.592Z,7.30
2017-10-09T05:50:09.215Z,7.40
2017-10-09T05:52:37.553Z,7.60
2017-10-09T05:55:05.208Z,7.60
2017-10-09T05:57:32.832Z,7.60
2017-10-09T06:00:00.422Z,7.70
2017-10-09T06:02:28.754Z,7.80
2017-10-09T06:04:56.376Z,7.80
2017-10-09T06:07:23.942Z,7.90
2017-10-09T06:09:51.694Z,7.90
2017-10-09T06:12:19.300Z,8.00
2017-10-09T06:14:46.868Z,8.00
2017-10-09T06:17:14.432Z,8.10
2017-10-09T06:19:42.248Z,8.10
2017-10-09T06:22:09.827Z,8.20
2017-10-09T06:24:37.391Z,8.20
2017-10-09T06:27:05.015Z,8.30
2017-10-09T06:29:32.632Z,8.40
2017-10-09T06:32:00.214Z,8.40
2017-10-09T06:34:28.595Z,8.60
2017-10-09T06:36:56.158Z,8.50
2017-10-09T06:39:23.827Z,8.60
2017-10-09T06:41:51.530Z,8.70
2017-10-09T06:44:19.121Z,8.80
2017-10-09T06:46:46.699Z,8.90
2017-10-09T06:49:15.084Z,9.10
2017-10-09T06:51:42.744Z,9.10
2017-10-09T06:54:11.093Z,9.30
2017-10-09T06:56:38.716Z,9.30
2017-10-09T06:59:07.136Z,9.50
2017-10-09T07:01:34.702Z,9.50
2017-10-09T07:04:02.310Z,9.60
2017-10-09T07:06:29.890Z,9.70
2017-10-09T07:08:57.635Z,9.80
2017-10-09T07:11:26.226Z,9.90
2017-10-09T07:13:54.572Z,10.00
2017-10-09T07:16:22.139Z,10.00
2017-10-09T07:18:50.519Z,10.00
2017-10-09T07:21:18.088Z,9.90
2017-10-09T07:23:45.650Z,9.90
2017-10-09T07:26:13.351Z,10.00
2017-10-09T07:28:40.918Z,10.00
2017-10-09T07:31:08.487Z,10.00
2017-10-09T07:33:36.128Z,10.10
2017-10-09T07:36:03.706Z,10.10
2017-10-09T07:38:32.039Z,10.30
2017-10-09T07:40:59.775Z,10.30
2017-10-09T07:43:27.346Z,10.40
2017-10-09T07:45:55.691Z,10.60
2017-10-09T07:48:23.327Z,10.60
2017-10-09T07:50:50.898Z,10.70
2017-10-09T07:53:18.467Z,11.00
2017-10-09T07:55:46.111Z,11.40
2017-10-09T07:58:13.691Z,11.80
2017-10-09T08:00:42.143Z,12.00
2017-10-09T08:03:09.960Z,12.20
2017-10-09T08:05:38.310Z,12.20
2017-10-09T08:08:06.648Z,12.10
2017-10-09T08:10:34.258Z,12.10
2017-10-09T08:13:01.832Z,12.10
2017-10-09T08:15:29.407Z,12.10
2017-10-09T08:17:57.947Z,12.10
2017-10-09T08:20:25.527Z,12.10
2017-10-09T08:22:53.130Z,12.20
2017-10-09T08:25:21.522Z,12.30
2017-10-09T08:27:49.098Z,12.30
2017-10-09T08:30:16.668Z,12.50
2017-10-09T08:32:44.391Z,12.60
2017-10-09T08:35:11.972Z,12.80
2017-10-09T08:37:40.322Z,12.80
2017-10-09T08:40:08.716Z,12.90
2017-10-09T08:42:36.295Z,12.90
2017-10-09T08:45:03.880Z,12.90
2017-10-09T08:47:32.671Z,13.00
2017-10-09T08:50:00.259Z,13.00
2017-10-09T08:52:27.837Z,13.00
2017-10-09T08:54:56.240Z,13.00
2017-10-09T08:57:23.820Z,13.00
2017-10-09T08:59:51.399Z,12.90
2017-10-09T09:02:19.787Z,12.90
2017-10-09T09:04:47.370Z,12.80
2017-10-09T09:07:14.946Z,12.90
2017-10-09T09:09:43.994Z,12.90
2017-10-09T09:12:11.580Z,12.90
2017-10-09T09:14:39.919Z,13.00
2017-10-09T09:17:08.323Z,13.00
2017-10-09T09:19:35.899Z,13.00
2017-10-09T09:22:03.471Z,13.10
2017-10-09T09:24:31.090Z,13.20
2017-10-09T09:26:58.662Z,13.40
2017-10-09T09:29:27.011Z,14.30
2017-10-09T09:31:54.743Z,14.30
2017-10-09T09:34:22.327Z,14.90
2017-10-09T09:36:50.662Z,15.60
2017-10-09T09:39:19.774Z,15.80
2017-10-09T09:41:48.115Z,15.80
2017-10-09T09:44:16.575Z,16.00
2017-10-09T09:46:44.960Z,16.00
2017-10-09T09:49:13.302Z,16.10
2017-10-09T09:51:40.872Z,16.10
2017-10-09T09:54:09.262Z,16.00
2017-10-09T09:56:36.836Z,16.00
2017-10-09T09:59:04.421Z,16.20
2017-10-09T10:01:32.803Z,16.50
2017-10-09T10:04:00.371Z,16.50
2017-10-09T10:06:27.951Z,16.20
2017-10-09T10:08:55.721Z,16.40
2017-10-09T10:11:24.064Z,16.20
2017-10-09T10:13:52.401Z,16.10
2017-10-09T10:16:20.028Z,16.10
2017-10-09T10:18:47.640Z,16.10
2017-10-09T10:21:15.219Z,16.10
2017-10-09T10:23:42.955Z,16.30
2017-10-09T10:26:10.627Z,16.40
2017-10-09T10:28:38.204Z,16.50
2017-10-09T10:31:06.603Z,16.70
2017-10-09T10:33:34.239Z,16.70
2017-10-09T10:36:01.856Z,16.60
2017-10-09T10:38:30.410Z,16.30
2017-10-09T10:40:58.003Z,16.30
2017-10-09T10:43:25.627Z,16.30
2017-10-09T10:45:53.480Z,16.40
2017-10-09T10:48:21.074Z,16.60
2017-10-09T10:50:48.714Z,16.90
2017-10-09T10:53:16.389Z,17.10
2017-10-09T10:55:44.739Z,17.40
2017-10-09T10:58:12.323Z,17.40
2017-10-09T11:00:40.122Z,17.30
2017-10-09T11:03:07.702Z,17.00
2017-10-09T11:05:36.043Z,16.80
2017-10-09T11:08:03.681Z,16.80
2017-10-09T11:10:31.255Z,16.70
2017-10-09T11:12:59.606Z,16.40
2017-10-09T11:15:28.211Z,16.60
2017-10-09T11:17:55.799Z,16.60
2017-10-09T11:20:23.366Z,16.90
2017-10-09T11:22:51.758Z,17.40
2017-10-09T11:25:19.326Z,17.40
2017-10-09T11:27:46.928Z,17.50
2017-10-09T11:30:14.567Z,17.60
2017-10-09T11:32:42.941Z,17.60
2017-10-09T11:35:10.529Z,17.60
2017-10-09T11:37:38.331Z,17.60
2017-10-09T11:40:05.908Z,17.50
2017-10-09T11:42:33.483Z,17.40
2017-10-09T11:45:02.866Z,17.40
2017-10-09T11:47:30.433Z,17.40
2017-10-09T11:49:58.786Z,17.40
2017-10-09T11:52:26.432Z,17.40
2017-10-09T11:54:54.000Z,17.20
2017-10-09T11:57:21.582Z,17.00
2017-10-09T11:59:49.228Z,16.90
2017-10-09T12:02:16.805Z,16.70
2017-10-09T12:04:44.383Z,16.50
2017-10-09T12:07:12.000Z,16.30
2017-10-09T12:09:39.563Z,16.20
2017-10-09T12:12:07.897Z,15.80
2017-10-09T12:14:38.386Z,15.80
2017-10-09T12:17:06.371Z,15.70
2017-10-09T12:19:33.951Z,15.60
2017-10-09T12:22:01.683Z,15.50
2017-10-09T12:24:29.294Z,15.50
2017-10-09T12:26:56.931Z,15.60
2017-10-09T12:29:24.555Z,15.60
2017-10-09T12:31:52.155Z,15.50
2017-10-09T12:34:19.769Z,15.50
2017-10-09T12:36:49.411Z,15.50
2017-10-09T12:39:16.988Z,15.40
2017-10-09T12:41:44.560Z,15.30
2017-10-09T12:44:12.193Z,15.20
2017-10-09T12:46:39.780Z,15.10
2017-10-09T12:49:07.362Z,15.10
2017-10-09T12:51:35.299Z,15.10
2017-10-09T12:54:02.870Z,15.00
2017-10-09T12:56:30.443Z,15.00
2017-10-09T12:58:58.829Z,14.90
2017-10-09T13:01:26.408Z,14.90
2017-10-09T13:03:53.991Z,14.80
2017-10-09T13:06:22.618Z,14.70
2017-10-09T13:08:50.477Z,14.70
2017-10-09T13:11:18.226Z,14.70
2017-10-09T13:13:46.635Z,14.60
2017-10-09T13:16:15.260Z,14.50
2017-10-09T13:18:43.686Z,14.40
2017-10-09T13:21:11.327Z,14.40
2017-10-09T13:23:38.923Z,14.30
2017-10-09T13:26:06.756Z,14.20
2017-10-09T13:28:35.490Z,14.10
2017-10-09T13:31:03.079Z,14.10
2017-10-09T13:33:30.647Z,14.10
2017-10-09T13:35:59.502Z,14.10
2017-10-09T13:38:28.097Z,14.10
2017-10-09T13:40:55.706Z,14.10
2017-10-09T13:43:23.333Z,14.10
2017-10-09T13:45:51.097Z,14.00
2017-10-09T13:48:18.674Z,14.00
2017-10-09T13:50:47.086Z,13.90
2017-10-09T13:53:14.654Z,13.90
2017-10-09T13:55:42.222Z,13.90
2017-10-09T13:58:10.602Z,13.80
2017-10-09T14:00:40.159Z,13.80
2017-10-09T14:03:07.748Z,13.80
2017-10-09T14:05:35.379Z,13.70
2017-10-09T14:08:02.975Z,13.70
2017-10-09T14:10:30.547Z,13.70
2017-10-09T14:12:58.320Z,13.70
2017-10-09T14:15:25.895Z,13.70
2017-10-09T14:17:53.474Z,13.70
2017-10-09T14:20:21.090Z,13.60
2017-10-09T14:22:48.656Z,13.50
2017-10-09T14:25:16.236Z,13.40
2017-10-09T14:27:43.876Z,13.30
2017-10-09T14:30:12.232Z,13.10
2017-10-09T14:40:09.325Z,12.90
2017-10-09T14:42:36.955Z,12.80
2017-10-09T14:45:04.529Z,12.80
2017-10-09T14:47:32.120Z,12.80
2017-10-09T14:49:59.749Z,12.80
2017-10-09T14:52:28.323Z,12.90
2017-10-09T14:54:55.905Z,12.80
2017-10-09T14:57:23.642Z,12.80
2017-10-09T14:59:51.243Z,12.80
2017-10-09T15:02:19.595Z,12.70
2017-10-09T15:04:48.335Z,12.70
2017-10-09T15:07:15.927Z,12.70
2017-10-09T15:09:43.551Z,12.70
2017-10-09T15:12:11.193Z,12.70
2017-10-09T15:14:38.771Z,12.70
2017-10-09T15:17:06.347Z,12.70
2017-10-09T15:19:34.437Z,12.70
2017-10-09T15:22:02.025Z,12.70
2017-10-09T15:24:29.608Z,12.70
2017-10-09T15:26:57.361Z,12.60
2017-10-09T15:29:25.716Z,12.60
2017-10-09T15:31:53.295Z,12.60
2017-10-09T15:34:21.783Z,12.60
2017-10-09T15:36:49.374Z,12.60
2017-10-09T15:39:16.982Z,12.60
2017-10-09T15:41:44.614Z,12.60
2017-10-09T15:44:12.196Z,12.50
2017-10-09T15:46:39.780Z,12.50
2017-10-09T15:49:08.363Z,12.50
2017-10-09T15:51:35.936Z,12.50
2017-10-09T15:54:03.522Z,12.50
2017-10-09T15:56:31.162Z,12.40
2017-10-09T15:58:58.915Z,12.40
2017-10-09T16:01:26.504Z,12.40
2017-10-09T16:03:54.232Z,12.40
2017-10-09T16:06:22.624Z,12.30
2017-10-09T16:08:50.326Z,12.30
2017-10-09T16:11:18.938Z,12.30
2017-10-09T16:13:46.517Z,12.30
2017-10-09T16:16:14.208Z,12.30
2017-10-09T16:18:42.690Z,12.30
2017-10-09T16:21:10.372Z,12.30
2017-10-09T16:23:37.972Z,12.20
2017-10-09T16:26:05.595Z,12.20
2017-10-09T16:28:33.942Z,12.20
2017-10-09T16:31:01.519Z,12.20
2017-10-09T16:33:29.179Z,12.20
2017-10-09T16:35:56.765Z,12.20
2017-10-09T16:38:24.407Z,12.20
2017-10-09T16:40:52.852Z,12.10
2017-10-09T16:43:20.440Z,12.10
2017-10-09T16:45:48.784Z,12.10
2017-10-09T16:48:17.199Z,12.10
2017-10-09T16:50:44.819Z,12.10
2017-10-09T16:53:13.266Z,12.10
2017-10-09T16:55:40.888Z,12.10
2017-10-09T16:58:08.487Z,12.10
2017-10-09T17:00:36.075Z,12.00
2017-10-09T17:03:03.776Z,12.00
2017-10-09T17:05:31.352Z,12.00
2017-10-09T17:07:58.941Z,12.00
2017-10-09T17:10:27.333Z,12.00
2017-10-09T17:12:54.906Z,12.00
2017-10-09T17:15:22.503Z,12.00
2017-10-09T17:17:51.481Z,12.00
2017-10-09T17:20:19.169Z,12.00
2017-10-09T17:22:46.755Z,11.90
2017-10-09T17:25:15.279Z,12.00
2017-10-09T17:27:45.099Z,11.90
2017-10-09T17:30:12.715Z,12.00
2017-10-09T17:32:40.348Z,12.00
2017-10-09T17:35:07.935Z,12.00
2017-10-09T17:37:35.555Z,12.00
2017-10-09T17:40:03.192Z,11.90
2017-10-09T17:42:32.661Z,11.90
2017-10-09T17:45:01.362Z,11.90
2017-10-09T17:47:30.228Z,11.90
2017-10-09T17:49:57.990Z,11.90
2017-10-09T17:52:25.561Z,11.80
2017-10-09T17:54:53.248Z,11.80
2017-10-09T17:57:23.024Z,11.80
2017-10-09T17:59:51.414Z,11.80
2017-10-09T18:02:19.246Z,11.70
2017-10-09T18:04:46.920Z,11.70
2017-10-09T18:07:15.532Z,11.70
2017-10-09T18:09:44.176Z,11.70
2017-10-09T18:12:12.342Z,11.60
2017-10-09T18:14:41.782Z,11.60
2017-10-09T18:17:09.983Z,11.60
2017-10-09T18:19:37.658Z,11.70
2017-10-09T18:22:06.548Z,11.60
2017-10-09T18:24:34.540Z,11.70
2017-10-09T18:27:02.765Z,11.60
2017-10-09T18:29:31.725Z,11.60
2017-10-09T18:32:00.219Z,11.60
2017-10-09T18:34:28.245Z,11.60
2017-10-09T18:36:55.953Z,11.60
2017-10-09T18:39:24.214Z,11.60
2017-10-09T18:41:54.401Z,11.60
2017-10-09T18:44:22.644Z,11.60
2017-10-09T18:46:51.619Z,11.60
2017-10-09T18:49:20.504Z,11.60
2017-10-09T18:51:49.918Z,11.70
2017-10-09T18:54:17.868Z,11.60
2017-10-09T18:56:45.460Z,11.60
2017-10-09T18:59:14.406Z,11.60
2017-10-09T19:01:43.361Z,11.60
2017-10-09T19:04:14.737Z,11.60
2017-10-09T19:06:44.654Z,11.70
2017-10-09T19:09:13.868Z,11.70
2017-10-09T19:11:41.979Z,11.70
2017-10-09T19:14:10.653Z,11.70
2017-10-09T19:16:39.588Z,11.60
2017-10-09T19:19:07.905Z,11.60
2017-10-09T19:21:35.946Z,11.60
2017-10-09T19:24:03.658Z,11.60
2017-10-09T19:26:33.307Z,11.60
2017-10-09T19:29:01.633Z,11.60
2017-10-09T19:31:30.861Z,11.50
2017-10-09T19:34:00.081Z,11.60
2017-10-09T19:36:28.493Z,11.50
2017-10-09T19:38:56.681Z,11.50
2017-10-09T19:41:24.363Z,11.50
2017-10-09T19:43:54.793Z,11.50
2017-10-09T19:46:24.068Z,11.50
2017-10-09T19:48:53.709Z,11.50
2017-10-09T19:51:21.612Z,11.50
2017-10-09T19:53:53.844Z,11.40
2017-10-09T19:56:22.142Z,11.40
2017-10-09T19:58:52.516Z,11.40
2017-10-09T20:01:23.578Z,11.30
2017-10-09T20:03:52.803Z,11.30
2017-10-09T20:06:25.187Z,11.30
2017-10-09T20:08:59.049Z,11.30
2017-10-09T20:11:27.256Z,11.30
2017-10-09T20:13:55.292Z,11.30
2017-10-09T20:16:23.680Z,11.30
2017-10-09T20:18:51.316Z,11.30
2017-10-09T20:21:18.913Z,11.40
2017-10-09T20:23:47.132Z,11.40
2017-10-09T20:26:14.919Z,11.30
2017-10-09T20:28:42.529Z,11.30
2017-10-09T20:31:10.145Z,11.30
2017-10-09T20:33:37.840Z,11.30
2017-10-09T20:36:05.442Z,11.30
2017-10-09T20:38:33.045Z,11.30
2017-10-09T20:41:00.789Z,11.30
2017-10-09T20:43:28.379Z,11.30
2017-10-09T20:45:56.756Z,11.30
2017-10-09T20:48:24.399Z,11.30
2017-10-09T20:50:52.015Z,11.20
2017-10-09T20:53:20.394Z,11.20
2017-10-09T20:55:48.041Z,11.20
2017-10-09T20:58:15.664Z,11.20
2017-10-09T21:00:43.259Z,11.20
2017-10-09T21:03:11.942Z,11.20
2017-10-09T21:05:39.529Z,11.20
2017-10-09T21:08:07.899Z,11.20
2017-10-09T21:10:36.322Z,11.20
2017-10-09T21:13:04.039Z,11.20
2017-10-09T21:15:32.011Z,11.20
2017-10-09T21:17:59.641Z,11.20
2017-10-09T21:20:27.249Z,11.20
2017-10-09T21:22:55.608Z,11.20
2017-10-09T21:25:24.242Z,11.20
2017-10-09T21:27:51.833Z,10.90
2017-10-09T21:30:19.456Z,11.20
2017-10-09T21:32:50.033Z,11.10
2017-10-09T21:35:17.652Z,11.10
2017-10-09T21:37:45.248Z,11.10
2017-10-09T21:40:12.892Z,11.10
2017-10-09T21:42:40.516Z,11.10
2017-10-09T21:45:09.724Z,11.10
2017-10-09T21:47:37.371Z,11.10
2017-10-09T21:50:05.734Z,11.10
2017-10-09T21:52:33.339Z,11.00
2017-10-09T21:55:01.169Z,11.10
2017-10-09T21:57:28.790Z,11.00
2017-10-09T21:59:56.502Z,11.00
2017-10-09T22:02:26.262Z,11.10
2017-10-09T22:04:53.879Z,11.10
2017-10-09T22:07:21.592Z,11.10
2017-10-09T22:09:49.392Z,11.10
2017-10-09T22:12:18.766Z,11.10
2017-10-09T22:14:46.355Z,11.00
2017-10-09T22:17:15.500Z,11.10
2017-10-09T22:19:43.188Z,11.10
2017-10-09T22:22:14.627Z,11.10
2017-10-09T22:24:42.566Z,11.10
2017-10-09T22:27:12.458Z,11.10
2017-10-09T22:29:40.160Z,11.10
2017-10-09T22:32:10.542Z,11.10
2017-10-09T22:34:38.369Z,11.10
2017-10-09T22:37:11.204Z,11.10
2017-10-09T22:39:39.167Z,11.10
2017-10-09T22:42:09.227Z,11.10
2017-10-09T22:44:37.007Z,11.00
2017-10-09T22:47:04.687Z,11.10
2017-10-09T22:49:32.404Z,11.00
2017-10-09T22:52:00.008Z,11.00
2017-10-09T22:54:39.594Z,11.10
2017-10-09T22:57:11.047Z,11.00
2017-10-09T22:59:38.948Z,11.00
2017-10-09T23:02:08.977Z,11.10
2017-10-09T23:04:36.852Z,11.10
2017-10-09T23:07:04.611Z,11.10
2017-10-09T23:09:32.360Z,11.10
2017-10-09T23:12:00.864Z,11.10
2017-10-09T23:14:29.276Z,11.10
2017-10-09T23:16:56.881Z,11.10
2017-10-09T23:19:24.499Z,11.10
2017-10-09T23:25:03.857Z,11.10
2017-10-09T23:27:45.354Z,11.10
2017-10-09T23:33:05.143Z,11.10
2017-10-09T23:38:24.671Z,11.10
2017-10-09T23:40:52.240Z,11.10
2017-10-09T23:43:19.811Z,11.20
2017-10-09T23:45:47.429Z,11.20
2017-10-09T23:48:14.997Z,11.20
2017-10-09T23:50:42.604Z,11.20
2017-10-09T23:53:10.216Z,11.20
2017-10-09T23:55:37.812Z,11.20
2017-10-09T23:58:06.248Z,11.30
